createdAt,value
2023-01-07T00:00:24.941Z,4.60
2023-01-07T00:02:58.899Z,4.60
2023-01-07T00:05:32.368Z,4.70
2023-01-07T00:08:07.665Z,4.60
2023-01-07T00:10:41.158Z,4.70
2023-01-07T00:13:14.787Z,4.70
2023-01-07T00:15:48.317Z,4.60
2023-01-07T00:18:22.152Z,4.70
2023-01-07T00:20:58.196Z,4.70
2023-01-07T00:23:34.634Z,4.70
2023-01-07T00:26:11.061Z,4.70
2023-01-07T00:28:46.073Z,4.70
2023-01-07T00:31:21.430Z,4.70
2023-01-07T00:34:09.095Z,4.70
2023-01-07T00:36:44.664Z,4.70
2023-01-07T00:39:21.309Z,4.70
2023-01-07T00:42:20.977Z,4.70
2023-01-07T00:44:54.454Z,4.70
2023-01-07T00:47:27.915Z,4.70
2023-01-07T00:50:01.461Z,4.80
2023-01-07T00:52:35.050Z,4.70
2023-01-07T00:55:11.992Z,4.70
2023-01-07T00:57:46.191Z,4.80
2023-01-07T01:00:22.283Z,4.80
2023-01-07T01:02:55.886Z,4.80
2023-01-07T01:05:29.556Z,4.80
2023-01-07T01:08:03.221Z,4.80
2023-01-07T01:10:38.181Z,4.70
2023-01-07T01:13:15.435Z,4.70
2023-01-07T01:15:50.993Z,4.70
2023-01-07T01:18:24.622Z,4.70
2023-01-07T01:21:03.846Z,4.70
2023-01-07T01:23:37.630Z,4.80
2023-01-07T01:26:15.692Z,4.80
2023-01-07T01:28:49.186Z,4.80
2023-01-07T01:31:27.560Z,4.80
2023-01-07T01:34:01.079Z,4.80
2023-01-07T01:36:35.059Z,4.80
2023-01-07T01:39:08.916Z,4.80
2023-01-07T01:41:44.277Z,4.80
2023-01-07T01:44:48.102Z,4.80
2023-01-07T01:47:36.695Z,4.80
2023-01-07T01:50:18.553Z,4.80
2023-01-07T01:52:57.195Z,4.80
2023-01-07T01:55:34.638Z,4.80
2023-01-07T01:58:13.998Z,4.80
2023-01-07T02:00:47.727Z,4.80
2023-01-07T02:03:23.378Z,4.80
2023-01-07T02:05:57.453Z,4.80
2023-01-07T02:08:31.471Z,4.80
2023-01-07T02:11:26.231Z,4.80
2023-01-07T02:14:23.675Z,4.70
2023-01-07T02:17:18.803Z,4.70
2023-01-07T02:20:19.887Z,4.70
2023-01-07T02:23:48.927Z,4.70
2023-01-07T02:27:13.715Z,4.70
2023-01-07T02:30:29.029Z,4.70
2023-01-07T02:33:39.184Z,4.70
2023-01-07T02:36:40.952Z,4.70
2023-01-07T02:39:25.307Z,4.70
2023-01-07T02:42:00.659Z,4.70
2023-01-07T02:44:41.593Z,4.70
2023-01-07T02:47:20.568Z,4.70
2023-01-07T02:49:56.356Z,4.70
2023-01-07T02:52:33.450Z,4.70
2023-01-07T02:55:12.586Z,4.70
2023-01-07T02:58:28.597Z,4.80
2023-01-07T03:01:26.001Z,4.80
2023-01-07T03:04:15.269Z,4.80
2023-01-07T03:07:00.144Z,4.80
2023-01-07T03:09:41.770Z,4.90
2023-01-07T03:12:21.304Z,4.90
2023-01-07T03:15:00.905Z,4.90
2023-01-07T03:17:40.673Z,4.90
2023-01-07T03:20:17.230Z,4.90
2023-01-07T03:22:54.167Z,4.90
2023-01-07T03:25:31.986Z,4.90
2023-01-07T03:28:07.007Z,4.90
2023-01-07T03:30:40.827Z,4.90
2023-01-07T03:33:18.771Z,4.90
2023-01-07T03:35:54.485Z,4.90
2023-01-07T03:38:29.752Z,4.90
2023-01-07T03:41:06.292Z,4.90
2023-01-07T03:43:38.823Z,4.90
2023-01-07T03:46:12.664Z,4.90
2023-01-07T03:48:46.237Z,4.90
2023-01-07T03:51:20.273Z,4.90
2023-01-07T03:53:55.190Z,4.80
2023-01-07T03:56:30.257Z,4.90
2023-01-07T03:59:03.910Z,4.80
2023-01-07T04:01:37.765Z,4.80
2023-01-07T04:04:11.821Z,4.80
2023-01-07T04:06:45.401Z,4.80
2023-01-07T04:09:22.018Z,4.70
2023-01-07T04:11:56.326Z,4.70
2023-01-07T04:14:29.836Z,4.80
2023-01-07T04:17:03.665Z,4.70
2023-01-07T04:19:38.608Z,4.70
2023-01-07T04:22:13.330Z,4.70
2023-01-07T04:24:49.196Z,4.70
2023-01-07T04:27:24.098Z,4.70
2023-01-07T04:29:58.933Z,4.70
2023-01-07T04:32:33.033Z,4.70
2023-01-07T04:35:07.215Z,4.60
2023-01-07T04:37:40.908Z,4.60
2023-01-07T04:40:16.118Z,4.60
2023-01-07T04:42:49.967Z,4.60
2023-01-07T04:45:23.944Z,4.60
2023-01-07T04:47:58.536Z,4.60
2023-01-07T04:50:32.187Z,4.60
2023-01-07T04:53:06.507Z,4.60
2023-01-07T04:55:42.181Z,4.60
2023-01-07T04:58:16.077Z,4.60
2023-01-07T05:00:49.629Z,4.60
2023-01-07T05:03:24.662Z,4.60
2023-01-07T05:05:59.497Z,4.60
2023-01-07T05:08:33.584Z,4.60
2023-01-07T05:11:08.708Z,4.60
2023-01-07T05:13:45.071Z,4.60
2023-01-07T05:16:19.429Z,4.60
2023-01-07T05:18:53.267Z,4.60
2023-01-07T05:21:26.889Z,4.50
2023-01-07T05:24:00.594Z,4.60
2023-01-07T05:26:35.870Z,4.50
2023-01-07T05:29:11.322Z,4.50
2023-01-07T05:31:46.919Z,4.60
2023-01-07T05:34:21.269Z,4.50
2023-01-07T05:36:55.675Z,4.50
2023-01-07T05:39:29.681Z,4.50
2023-01-07T05:42:04.811Z,4.50
2023-01-07T05:44:39.151Z,4.50
2023-01-07T05:47:13.188Z,4.50
2023-01-07T05:49:46.826Z,4.40
2023-01-07T05:52:20.309Z,4.50
2023-01-07T05:54:54.086Z,4.50
2023-01-07T05:57:29.056Z,4.40
2023-01-07T06:00:06.138Z,4.40
2023-01-07T06:02:45.465Z,4.30
2023-01-07T06:05:19.289Z,4.30
2023-01-07T06:07:53.204Z,4.30
2023-01-07T06:10:26.826Z,4.30
2023-01-07T06:13:02.160Z,4.30
2023-01-07T06:15:35.716Z,4.30
2023-01-07T06:18:09.224Z,4.30
2023-01-07T06:20:43.029Z,4.30
2023-01-07T06:23:16.607Z,4.30
2023-01-07T06:25:50.387Z,4.30
2023-01-07T06:28:25.491Z,4.20
2023-01-07T06:30:59.027Z,4.20
2023-01-07T06:33:33.599Z,4.20
2023-01-07T06:36:08.092Z,4.20
2023-01-07T06:38:42.591Z,4.20
2023-01-07T06:41:16.072Z,4.20
2023-01-07T06:43:51.008Z,4.20
2023-01-07T06:46:25.147Z,4.20
2023-01-07T06:48:58.844Z,4.20
2023-01-07T06:51:32.521Z,4.20
2023-01-07T06:54:06.156Z,4.20
2023-01-07T06:56:39.632Z,4.20
2023-01-07T06:59:14.713Z,4.10
2023-01-07T07:01:48.424Z,4.20
2023-01-07T07:04:22.131Z,4.20
2023-01-07T07:06:55.989Z,4.20
2023-01-07T07:09:29.474Z,4.30
2023-01-07T07:12:02.977Z,4.30
2023-01-07T07:14:38.091Z,4.30
2023-01-07T07:17:11.587Z,4.30
2023-01-07T07:19:45.066Z,4.30
2023-01-07T07:22:18.715Z,4.40
2023-01-07T07:24:56.016Z,4.40
2023-01-07T07:27:29.588Z,4.40
2023-01-07T07:30:04.873Z,4.40
2023-01-07T07:32:38.363Z,4.50
2023-01-07T07:35:12.654Z,4.50
2023-01-07T07:37:46.164Z,4.50
2023-01-07T07:40:19.813Z,4.60
2023-01-07T07:43:10.780Z,4.50
2023-01-07T07:45:47.446Z,4.50
2023-01-07T07:48:21.136Z,4.50
2023-01-07T07:50:55.050Z,4.50
2023-01-07T07:53:28.649Z,4.60
2023-01-07T07:56:02.140Z,4.60
2023-01-07T07:58:36.371Z,4.60
2023-01-07T08:01:11.435Z,4.70
2023-01-07T08:03:45.011Z,4.70
2023-01-07T08:06:18.581Z,4.80
2023-01-07T08:08:52.071Z,4.80
2023-01-07T08:11:25.620Z,4.90
2023-01-07T08:13:59.116Z,5.00
2023-01-07T08:16:34.487Z,5.00
2023-01-07T08:19:07.997Z,5.10
2023-01-07T08:21:41.660Z,5.20
2023-01-07T08:24:15.163Z,5.20
2023-01-07T08:26:48.833Z,5.20
2023-01-07T08:29:22.786Z,5.20
2023-01-07T08:31:57.792Z,5.30
2023-01-07T08:34:31.520Z,5.30
2023-01-07T08:37:05.033Z,5.40
2023-01-07T08:39:38.564Z,5.40
2023-01-07T08:42:12.085Z,5.40
2023-01-07T08:44:45.773Z,5.50
2023-01-07T08:47:20.651Z,5.50
2023-01-07T08:49:54.499Z,5.50
2023-01-07T08:52:28.357Z,5.50
2023-01-07T08:55:02.079Z,5.50
2023-01-07T08:57:35.571Z,5.50
2023-01-07T09:00:10.775Z,5.60
2023-01-07T09:02:46.354Z,5.60
2023-01-07T09:05:20.366Z,5.60
2023-01-07T09:07:54.536Z,5.70
2023-01-07T09:10:28.126Z,5.70
2023-01-07T09:13:01.634Z,5.70
2023-01-07T09:15:35.400Z,5.70
2023-01-07T09:18:10.355Z,5.80
2023-01-07T09:20:43.926Z,5.80
2023-01-07T09:23:17.601Z,5.90
2023-01-07T09:25:51.176Z,5.90
2023-01-07T09:28:24.950Z,6.00
2023-01-07T09:30:58.644Z,6.10
2023-01-07T09:33:33.968Z,6.10
2023-01-07T09:36:07.921Z,6.20
2023-01-07T09:38:41.502Z,6.30
2023-01-07T09:41:30.112Z,6.30
2023-01-07T09:44:13.707Z,6.40
2023-01-07T09:46:49.214Z,6.40
2023-01-07T09:49:32.581Z,6.50
2023-01-07T09:52:11.324Z,6.50
2023-01-07T09:54:48.700Z,6.50
2023-01-07T09:57:22.249Z,6.50
2023-01-07T09:59:56.094Z,6.50
2023-01-07T10:02:40.526Z,6.60
2023-01-07T10:05:30.550Z,6.60
2023-01-07T10:08:29.804Z,6.60
2023-01-07T10:11:15.781Z,6.60
2023-01-07T10:14:13.853Z,6.60
2023-01-07T10:16:56.241Z,6.60
2023-01-07T10:19:41.082Z,6.60
2023-01-07T10:22:23.246Z,6.60
2023-01-07T10:25:00.398Z,6.70
2023-01-07T10:27:36.523Z,6.70
2023-01-07T10:30:17.075Z,6.80
2023-01-07T10:32:53.983Z,6.80
2023-01-07T10:35:30.391Z,6.90
2023-01-07T10:38:06.829Z,6.90
2023-01-07T10:40:44.142Z,7.00
2023-01-07T10:43:30.538Z,7.00
2023-01-07T10:46:18.196Z,7.00
2023-01-07T10:49:27.727Z,7.10
2023-01-07T10:52:27.307Z,7.00
2023-01-07T10:55:36.942Z,7.10
2023-01-07T10:58:11.895Z,7.10
2023-01-07T11:00:48.796Z,7.10
2023-01-07T11:03:24.663Z,7.00
2023-01-07T11:06:05.527Z,7.00
2023-01-07T11:08:41.271Z,7.00
2023-01-07T11:11:17.566Z,7.00
2023-01-07T11:13:59.735Z,7.10
2023-01-07T11:16:38.141Z,7.10
2023-01-07T11:19:13.716Z,7.20
2023-01-07T11:21:50.474Z,7.20
2023-01-07T11:24:35.384Z,7.20
2023-01-07T11:27:16.206Z,7.20
2023-01-07T11:29:59.740Z,7.20
2023-01-07T11:32:35.781Z,7.20
2023-01-07T11:35:22.748Z,7.20
2023-01-07T11:37:57.201Z,7.20
2023-01-07T11:40:33.243Z,7.20
2023-01-07T11:43:23.527Z,7.30
2023-01-07T11:46:19.418Z,7.30
2023-01-07T11:48:57.423Z,7.40
2023-01-07T11:51:41.267Z,7.40
2023-01-07T11:54:22.276Z,7.50
2023-01-07T11:57:13.166Z,7.50
2023-01-07T11:59:48.088Z,7.50
2023-01-07T12:02:27.012Z,7.60
2023-01-07T12:05:19.095Z,7.60
2023-01-07T12:07:53.448Z,7.70
2023-01-07T12:10:35.828Z,7.70
2023-01-07T12:13:20.545Z,7.80
2023-01-07T12:15:58.676Z,7.80
2023-01-07T12:18:56.692Z,7.80
2023-01-07T12:21:44.958Z,7.90
2023-01-07T12:24:45.842Z,7.90
2023-01-07T12:27:31.975Z,7.90
2023-01-07T12:30:35.138Z,7.90
2023-01-07T12:33:15.638Z,7.80
2023-01-07T12:35:49.752Z,7.80
2023-01-07T12:38:27.153Z,7.70
2023-01-07T12:41:05.645Z,7.70
2023-01-07T12:43:45.227Z,7.70
2023-01-07T12:46:20.202Z,7.70
2023-01-07T12:49:04.924Z,7.70
2023-01-07T12:51:44.845Z,7.70
2023-01-07T12:54:28.911Z,7.60
2023-01-07T12:57:10.557Z,7.60
2023-01-07T12:59:49.426Z,7.60
2023-01-07T13:02:32.453Z,7.70
2023-01-07T13:05:15.372Z,7.80
2023-01-07T13:07:55.026Z,7.90
2023-01-07T13:10:36.887Z,8.00
2023-01-07T13:13:16.723Z,8.00
2023-01-07T13:15:50.956Z,8.10
2023-01-07T13:18:24.565Z,8.10
2023-01-07T13:21:08.003Z,8.00
2023-01-07T13:23:55.723Z,8.00
2023-01-07T13:26:35.960Z,7.90
2023-01-07T13:29:26.021Z,7.80
2023-01-07T13:32:30.124Z,7.80
2023-01-07T13:35:34.808Z,7.70
2023-01-07T13:38:21.411Z,7.70
2023-01-07T13:41:19.604Z,7.60
2023-01-07T13:44:07.697Z,7.50
2023-01-07T13:46:45.726Z,7.40
2023-01-07T13:49:26.760Z,7.40
2023-01-07T13:52:15.613Z,7.30
2023-01-07T13:54:59.389Z,7.20
2023-01-07T13:57:46.770Z,7.20
2023-01-07T14:00:39.751Z,7.10
2023-01-07T14:03:40.118Z,7.10
2023-01-07T14:06:45.630Z,7.00
2023-01-07T14:09:40.511Z,7.00
2023-01-07T14:12:50.208Z,7.00
2023-01-07T14:15:59.393Z,6.90
2023-01-07T14:19:00.946Z,6.90
2023-01-07T14:22:06.917Z,6.80
2023-01-07T14:25:05.854Z,6.70
2023-01-07T14:27:59.331Z,6.60
2023-01-07T14:30:36.628Z,6.50
2023-01-07T14:33:20.429Z,6.40
2023-01-07T14:35:57.558Z,6.40
2023-01-07T14:39:07.504Z,6.30
2023-01-07T14:42:22.787Z,6.30
2023-01-07T14:44:56.634Z,6.20
2023-01-07T14:47:54.869Z,6.10
2023-01-07T14:50:35.878Z,6.10
2023-01-07T14:53:34.999Z,6.00
2023-01-07T14:56:23.641Z,6.00
2023-01-07T14:59:24.992Z,5.90
2023-01-07T15:02:31.377Z,5.90
2023-01-07T15:05:31.294Z,5.90
2023-01-07T15:08:27.500Z,5.80
2023-01-07T15:11:19.839Z,5.70
2023-01-07T15:14:26.998Z,5.60
2023-01-07T15:17:02.792Z,5.60
2023-01-07T15:19:39.247Z,5.60
2023-01-07T15:22:42.697Z,5.60
2023-01-07T15:25:32.953Z,5.50
2023-01-07T15:28:13.971Z,5.40
2023-01-07T15:30:56.867Z,5.40
2023-01-07T15:34:04.356Z,5.40
2023-01-07T15:36:43.143Z,5.30
2023-01-07T15:39:21.753Z,5.30
2023-01-07T15:41:57.668Z,5.20
2023-01-07T15:44:40.917Z,5.20
2023-01-07T15:47:33.846Z,5.20
2023-01-07T15:50:28.824Z,5.10
2023-01-07T15:53:04.900Z,5.20
2023-01-07T15:55:40.623Z,5.10
2023-01-07T15:58:22.140Z,5.10
2023-01-07T16:00:59.704Z,5.10
2023-01-07T16:03:34.850Z,5.10
2023-01-07T16:06:27.356Z,5.10
2023-01-07T16:09:04.075Z,5.10
2023-01-07T16:11:37.595Z,5.10
2023-01-07T16:14:16.995Z,5.00
2023-01-07T16:17:05.470Z,5.10
2023-01-07T16:19:39.194Z,5.10
2023-01-07T16:22:16.955Z,5.10
2023-01-07T16:24:53.063Z,5.10
2023-01-07T16:27:31.251Z,5.10
2023-01-07T16:30:08.015Z,5.10
2023-01-07T16:32:41.880Z,5.10
2023-01-07T16:35:20.813Z,5.20
2023-01-07T16:37:54.721Z,5.20
2023-01-07T16:40:35.058Z,5.20
2023-01-07T16:43:33.417Z,5.20
2023-01-07T16:46:24.868Z,5.30
2023-01-07T16:49:27.417Z,5.20
2023-01-07T16:52:07.591Z,5.20
2023-01-07T16:54:42.671Z,5.20
2023-01-07T16:57:30.550Z,5.20
2023-01-07T17:00:06.819Z,5.20
2023-01-07T17:02:49.287Z,5.10
2023-01-07T17:05:25.187Z,5.10
2023-01-07T17:08:01.808Z,5.10
2023-01-07T17:10:38.485Z,5.10
2023-01-07T17:13:34.469Z,5.10
2023-01-07T17:16:24.509Z,5.10
2023-01-07T17:19:20.795Z,5.10
2023-01-07T17:21:56.673Z,5.10
2023-01-07T17:24:48.438Z,5.10
2023-01-07T17:27:27.017Z,5.20
2023-01-07T17:30:04.224Z,5.10
2023-01-07T17:32:39.879Z,5.20
2023-01-07T17:35:22.783Z,5.20
2023-01-07T17:37:57.217Z,5.20
2023-01-07T17:40:30.756Z,5.20
2023-01-07T17:43:21.981Z,5.20
2023-01-07T17:45:55.560Z,5.20
2023-01-07T17:48:29.642Z,5.20
2023-01-07T17:51:05.520Z,5.20
2023-01-07T17:53:44.676Z,5.10
2023-01-07T17:56:18.476Z,5.10
2023-01-07T17:58:53.971Z,5.10
2023-01-07T18:01:29.475Z,5.10
2023-01-07T18:04:03.057Z,5.10
2023-01-07T18:06:39.423Z,5.10
2023-01-07T18:09:13.741Z,5.10
2023-01-07T18:12:05.351Z,5.10
2023-01-07T18:14:38.797Z,5.00
2023-01-07T18:17:12.327Z,5.00
2023-01-07T18:19:45.988Z,4.90
2023-01-07T18:22:21.480Z,4.90
2023-01-07T18:24:54.989Z,4.90
2023-01-07T18:27:28.545Z,4.80
2023-01-07T18:30:02.155Z,4.80
2023-01-07T18:32:35.736Z,4.70
2023-01-07T18:35:09.874Z,4.70
2023-01-07T18:37:44.788Z,4.60
2023-01-07T18:40:19.217Z,4.60
2023-01-07T18:42:55.062Z,4.50
2023-01-07T18:45:28.548Z,4.40
2023-01-07T18:48:03.293Z,4.40
2023-01-07T18:50:36.958Z,4.30
2023-01-07T18:53:12.056Z,4.20
2023-01-07T18:55:46.303Z,4.10
2023-01-07T18:58:22.807Z,4.10
2023-01-07T19:00:56.840Z,3.90
2023-01-07T19:03:30.467Z,3.80
2023-01-07T19:06:07.857Z,3.70
2023-01-07T19:08:42.901Z,3.60
2023-01-07T19:11:16.666Z,3.50
2023-01-07T19:13:50.271Z,3.50
2023-01-07T19:16:23.935Z,3.50
2023-01-07T19:18:57.562Z,3.40
2023-01-07T19:21:31.731Z,3.40
2023-01-07T19:24:07.653Z,3.30
2023-01-07T19:26:42.873Z,3.30
2023-01-07T19:29:16.702Z,3.20
2023-01-07T19:31:50.286Z,3.20
2023-01-07T19:34:23.896Z,3.20
2023-01-07T19:36:57.883Z,3.10
2023-01-07T19:39:32.792Z,3.10
2023-01-07T19:42:06.413Z,3.10
2023-01-07T19:44:41.753Z,3.00
2023-01-07T19:47:17.201Z,3.00
2023-01-07T19:49:50.959Z,2.90
2023-01-07T19:52:24.537Z,3.00
2023-01-07T19:55:00.004Z,2.90
2023-01-07T19:57:34.339Z,2.90
2023-01-07T20:00:09.326Z,2.90
2023-01-07T20:02:43.928Z,2.90
2023-01-07T20:05:17.949Z,2.90
2023-01-07T20:07:53.503Z,2.90
2023-01-07T20:10:28.515Z,3.00
2023-01-07T20:13:02.109Z,3.00
2023-01-07T20:15:36.200Z,3.00
2023-01-07T20:18:09.737Z,3.00
2023-01-07T20:20:43.260Z,3.00
2023-01-07T20:23:16.778Z,3.00
2023-01-07T20:25:51.886Z,3.10
2023-01-07T20:28:25.426Z,3.10
2023-01-07T20:30:59.416Z,3.10
2023-01-07T20:33:32.960Z,3.10
2023-01-07T20:36:09.034Z,3.10
2023-01-07T20:38:43.931Z,3.20
2023-01-07T20:41:21.194Z,3.20
2023-01-07T20:43:56.995Z,3.20
2023-01-07T20:46:31.787Z,3.20
2023-01-07T20:49:05.317Z,3.20
2023-01-07T20:51:38.845Z,3.20
2023-01-07T20:54:13.313Z,3.20
2023-01-07T20:56:50.737Z,3.20
2023-01-07T20:59:24.323Z,3.20
2023-01-07T21:01:58.029Z,3.20
2023-01-07T21:04:31.824Z,3.20
2023-01-07T21:07:05.310Z,3.20
2023-01-07T21:09:38.923Z,3.30
2023-01-07T21:12:13.805Z,3.30
2023-01-07T21:14:47.409Z,3.30
2023-01-07T21:17:20.967Z,3.30
2023-01-07T21:19:54.456Z,3.30
2023-01-07T21:22:27.938Z,3.20
2023-01-07T21:25:01.410Z,3.20
2023-01-07T21:27:37.869Z,3.20
2023-01-07T21:30:14.580Z,3.20
2023-01-07T21:32:48.176Z,3.20
2023-01-07T21:35:21.673Z,3.20
2023-01-07T21:37:55.245Z,3.10
2023-01-07T21:40:28.739Z,3.10
2023-01-07T21:43:03.636Z,3.20
2023-01-07T21:45:37.923Z,3.20
2023-01-07T21:48:11.443Z,3.20
2023-01-07T21:50:44.919Z,3.20
2023-01-07T21:53:18.607Z,3.20
2023-01-07T21:55:52.100Z,3.20
2023-01-07T21:58:27.035Z,3.20
2023-01-07T22:01:00.584Z,3.20
2023-01-07T22:03:34.760Z,3.20
2023-01-07T22:06:14.398Z,3.20
2023-01-07T22:08:48.129Z,3.20
2023-01-07T22:11:21.664Z,3.20
2023-01-07T22:13:58.518Z,3.20
2023-01-07T22:16:33.213Z,3.20
2023-01-07T22:19:06.886Z,3.20
2023-01-07T22:21:40.864Z,3.20
2023-01-07T22:24:14.614Z,3.20
2023-01-07T22:26:48.750Z,3.20
2023-01-07T22:29:24.304Z,3.20
2023-01-07T22:31:57.831Z,3.20
2023-01-07T22:34:32.312Z,3.20
2023-01-07T22:37:09.206Z,3.20
2023-01-07T22:39:45.413Z,3.20
2023-01-07T22:42:21.437Z,3.10
2023-01-07T22:45:00.277Z,3.10
2023-01-07T22:47:38.606Z,3.10
2023-01-07T22:50:14.569Z,3.10
2023-01-07T22:52:48.653Z,3.10
2023-01-07T22:55:22.431Z,3.10
2023-01-07T22:57:55.992Z,3.10
2023-01-07T23:00:56.239Z,3.10
2023-01-07T23:03:29.986Z,3.10
2023-01-07T23:06:03.668Z,3.00
2023-01-07T23:08:37.590Z,3.00
2023-01-07T23:11:11.382Z,3.00
2023-01-07T23:13:44.843Z,3.00
2023-01-07T23:16:20.024Z,2.90
2023-01-07T23:18:53.509Z,2.90
2023-01-07T23:21:27.040Z,2.80
2023-01-07T23:24:00.682Z,2.90
2023-01-07T23:26:34.639Z,2.90
2023-01-07T23:29:08.677Z,2.90
2023-01-07T23:31:43.917Z,2.90
2023-01-07T23:34:17.817Z,2.90
2023-01-07T23:36:51.289Z,2.90
2023-01-07T23:39:24.790Z,2.80
2023-01-07T23:41:58.272Z,2.80
2023-01-07T23:44:31.935Z,2.70
2023-01-07T23:47:07.198Z,2.70
2023-01-07T23:49:40.671Z,2.60
2023-01-07T23:52:14.220Z,2.60
2023-01-07T23:54:47.726Z,2.60
2023-01-07T23:57:21.397Z,2.60
2023-01-07T23:59:55.031Z,2.60
